Time;durP1;ratioP1;P1;durP2;ratioP2;P2;SDS_P1;SDS_P2;PMS_P1;PMS_P2;Temp;Humidity;BMP_temperature;BMP_pressure;BME280_temperature;BME280_humidity;BME280_pressure;Samples;Min_cycle;Max_cycle;Signal;HPM_P1;HPM_P2
2022/12/03 00:00:17;;;;;;;46.33;21.40;;;2.70;96.00;;;;;;5052658;28;20763;-64
2022/12/03 00:02:43;;;;;;;53.00;24.80;;;2.70;96.00;;;;;;5023864;28;20190;-62
2022/12/03 00:05:09;;;;;;;53.17;22.20;;;2.70;96.00;;;;;;5025075;28;20439;-62
2022/12/03 00:07:35;;;;;;;44.47;19.73;;;2.80;96.10;;;;;;5060890;28;20319;-62
2022/12/03 00:10:01;;;;;;;49.30;21.00;;;2.70;96.00;;;;;;5040236;28;20884;-63
2022/12/03 00:12:26;;;;;;;49.90;21.87;;;2.80;96.10;;;;;;5021086;28;20231;-63
2022/12/03 00:14:52;;;;;;;51.70;20.87;;;2.80;96.10;;;;;;5022251;28;20198;-62
2022/12/03 00:17:18;;;;;;;43.17;19.17;;;2.80;96.10;;;;;;5033462;28;20197;-62
2022/12/03 00:19:43;;;;;;;48.13;20.53;;;2.70;96.10;;;;;;5018030;28;20239;-62
2022/12/03 00:22:09;;;;;;;44.60;20.67;;;2.70;96.10;;;;;;5020649;28;20237;-62
2022/12/03 00:24:34;;;;;;;54.77;22.97;;;2.70;96.10;;;;;;5004021;28;20186;-63
2022/12/03 00:27:00;;;;;;;47.63;19.67;;;2.70;96.10;;;;;;5004718;28;20217;-63
2022/12/03 00:29:26;;;;;;;44.37;20.23;;;2.70;96.10;;;;;;5022706;28;20281;-64
2022/12/03 00:31:51;;;;;;;42.67;20.13;;;2.70;96.10;;;;;;5025260;28;20236;-63
2022/12/03 00:34:17;;;;;;;47.43;18.37;;;2.80;96.10;;;;;;5013136;28;20194;-63
2022/12/03 00:36:43;;;;;;;47.07;21.43;;;2.80;96.10;;;;;;5013416;28;20186;-63
2022/12/03 00:39:08;;;;;;;48.10;19.60;;;2.80;96.10;;;;;;5018187;28;20220;-63
2022/12/03 00:41:34;;;;;;;48.13;20.50;;;2.80;96.10;;;;;;5015806;28;20263;-63
2022/12/03 00:44:00;;;;;;;48.77;19.87;;;2.80;96.10;;;;;;5022232;28;20191;-63
2022/12/03 00:46:26;;;;;;;43.40;18.07;;;2.80;96.10;;;;;;5009999;28;20269;-63
2022/12/03 00:48:51;;;;;;;42.53;18.87;;;2.80;96.10;;;;;;5037589;28;20196;-63
2022/12/03 00:51:17;;;;;;;55.13;21.27;;;2.80;96.10;;;;;;5032821;28;20234;-63
2022/12/03 00:53:43;;;;;;;44.27;19.23;;;2.70;96.10;;;;;;5035268;28;20198;-63
2022/12/03 00:56:08;;;;;;;43.03;17.83;;;2.80;96.20;;;;;;5014016;28;20187;-63
2022/12/03 00:58:34;;;;;;;48.37;20.40;;;2.80;96.20;;;;;;5017036;28;20241;-63
2022/12/03 01:01:00;;;;;;;50.60;20.63;;;2.80;96.20;;;;;;5043466;28;20231;-63
2022/12/03 01:03:26;;;;;;;46.87;19.23;;;2.80;96.20;;;;;;5051636;28;20194;-63
2022/12/03 01:05:51;;;;;;;47.27;21.77;;;2.70;96.20;;;;;;5027687;28;20217;-63
2022/12/03 01:08:17;;;;;;;41.23;19.70;;;2.80;96.20;;;;;;5036129;28;20185;-63
2022/12/03 01:10:43;;;;;;;45.50;21.23;;;2.70;96.20;;;;;;5028766;28;20244;-63
2022/12/03 01:13:08;;;;;;;55.60;20.97;;;2.70;96.20;;;;;;5012655;28;20336;-63
2022/12/03 01:15:34;;;;;;;57.43;21.83;;;2.70;96.20;;;;;;5014913;28;20212;-63
2022/12/03 01:18:00;;;;;;;51.70;21.53;;;2.60;96.10;;;;;;5018239;28;20272;-64
2022/12/03 01:20:25;;;;;;;47.40;20.80;;;2.60;96.10;;;;;;5022413;28;20194;-63
2022/12/03 01:22:51;;;;;;;57.30;22.27;;;2.60;96.10;;;;;;5045446;28;20661;-63
2022/12/03 01:25:17;;;;;;;46.20;20.20;;;2.60;96.00;;;;;;5038570;28;20183;-63
2022/12/03 01:27:43;;;;;;;41.53;17.93;;;2.60;96.10;;;;;;5035704;28;20186;-63
2022/12/03 01:30:09;;;;;;;50.13;21.27;;;2.60;96.10;;;;;;5040586;28;20183;-63
2022/12/03 01:32:35;;;;;;;53.00;21.17;;;2.60;96.10;;;;;;5016421;28;20191;-63
2022/12/03 01:35:01;;;;;;;56.83;22.57;;;2.60;96.10;;;;;;5021249;28;20468;-63
2022/12/03 01:37:26;;;;;;;45.57;19.10;;;2.70;96.10;;;;;;5018932;28;20267;-62
2022/12/03 01:39:52;;;;;;;49.77;20.37;;;2.70;96.10;;;;;;5024094;28;20203;-63
2022/12/03 01:42:31;;;;;;;42.70;17.73;;;2.70;96.10;;;;;;5026895;28;20637;-62
2022/12/03 01:44:59;;;;;;;46.70;19.53;;;2.70;96.10;;;;;;5040557;28;20191;-63
2022/12/03 01:47:33;;;;;;;50.17;20.47;;;2.70;96.10;;;;;;5046567;28;20912;-62
2022/12/03 01:50:04;;;;;;;53.67;20.23;;;2.60;96.10;;;;;;5044084;28;20428;-63
2022/12/03 01:52:33;;;;;;;46.50;20.63;;;2.60;96.10;;;;;;5049825;28;20484;-63
2022/12/03 01:55:03;;;;;;;44.67;19.03;;;2.70;96.10;;;;;;5040706;28;20985;-62
2022/12/03 01:57:35;;;;;;;43.33;18.57;;;2.70;96.10;;;;;;5054600;28;20519;-63
2022/12/03 02:00:01;;;;;;;38.30;19.13;;;2.70;96.20;;;;;;5058512;28;20437;-63
2022/12/03 02:02:29;;;;;;;47.83;20.33;;;2.70;96.20;;;;;;5042462;28;21035;-63
2022/12/03 02:04:55;;;;;;;47.17;20.13;;;2.70;96.20;;;;;;5049814;28;20191;-63
2022/12/03 02:07:30;;;;;;;47.80;19.93;;;2.70;96.20;;;;;;5051174;28;20452;-63
2022/12/03 02:09:58;;;;;;;42.57;17.93;;;2.70;96.20;;;;;;5054962;28;20910;-63
2022/12/03 02:12:44;;;;;;;38.57;15.63;;;2.70;96.20;;;;;;5044535;28;20470;-63
2022/12/03 02:15:11;;;;;;;41.57;16.20;;;2.70;96.20;;;;;;5040381;28;20431;-63
2022/12/03 02:17:37;;;;;;;45.80;18.60;;;2.70;96.20;;;;;;5041144;28;20441;-63
2022/12/03 02:20:05;;;;;;;44.97;18.67;;;2.70;96.20;;;;;;5033573;28;20447;-63
2022/12/03 02:22:38;;;;;;;41.07;16.57;;;2.70;96.20;;;;;;5017953;28;20522;-63
2022/12/03 02:25:07;;;;;;;45.07;19.70;;;2.70;96.20;;;;;;5046546;28;20428;-63
2022/12/03 02:27:33;;;;;;;39.90;18.13;;;2.60;96.20;;;;;;5041880;28;20451;-63
2022/12/03 02:29:59;;;;;;;38.40;17.50;;;2.60;96.20;;;;;;5030137;28;20444;-63
2022/12/03 02:32:24;;;;;;;35.20;16.43;;;2.60;96.20;;;;;;5021343;28;20202;-63
2022/12/03 02:34:50;;;;;;;47.93;19.70;;;2.70;96.20;;;;;;5031283;28;20194;-63
2022/12/03 02:37:20;;;;;;;39.63;16.47;;;2.70;96.20;;;;;;5029548;28;20198;-63
2022/12/03 02:39:52;;;;;;;36.83;15.13;;;2.70;96.20;;;;;;5053207;28;20218;-63
2022/12/03 02:42:34;;;;;;;31.00;14.37;;;2.70;96.20;;;;;;5035589;28;20473;-63
2022/12/03 02:45:21;;;;;;;34.60;14.23;;;2.70;96.20;;;;;;5042866;28;20453;-64
2022/12/03 02:47:58;;;;;;;46.43;18.00;;;2.70;96.20;;;;;;5048287;28;20426;-61
2022/12/03 02:50:28;;;;;;;40.07;18.50;;;2.80;96.20;;;;;;5041089;28;20433;-62
2022/12/03 02:52:56;;;;;;;43.63;18.43;;;2.70;96.20;;;;;;5034826;28;20476;-62
2022/12/03 02:55:22;;;;;;;35.00;16.20;;;2.70;96.20;;;;;;5053444;28;20498;-63
2022/12/03 02:57:49;;;;;;;37.77;16.83;;;2.70;96.20;;;;;;5038307;28;20515;-63
2022/12/03 03:00:16;;;;;;;43.83;18.13;;;2.70;96.20;;;;;;5036303;28;20441;-63
2022/12/03 03:02:42;;;;;;;35.13;17.57;;;2.70;96.20;;;;;;5053970;28;20460;-63
2022/12/03 03:05:13;;;;;;;37.57;17.47;;;2.70;96.20;;;;;;5028849;28;20786;-62
2022/12/03 03:07:39;;;;;;;28.93;12.83;;;2.60;96.20;;;;;;5041874;28;20418;-63
2022/12/03 03:10:08;;;;;;;37.57;16.53;;;2.60;96.20;;;;;;5025257;28;20490;-63
2022/12/03 03:12:33;;;;;;;31.63;15.73;;;2.60;96.20;;;;;;5048938;28;20433;-63
2022/12/03 03:14:59;;;;;;;33.07;17.07;;;2.60;96.20;;;;;;5043305;28;20907;-63
2022/12/03 03:17:26;;;;;;;30.10;13.97;;;2.60;96.10;;;;;;5025219;28;20195;-62
2022/12/03 03:19:51;;;;;;;38.83;16.50;;;2.60;96.20;;;;;;5058856;28;20198;-62
2022/12/03 03:22:17;;;;;;;33.63;16.70;;;2.60;96.20;;;;;;5018250;28;20467;-62
2022/12/03 03:24:43;;;;;;;33.43;16.00;;;2.60;96.20;;;;;;5003172;28;20274;-62
2022/12/03 03:27:09;;;;;;;38.20;15.90;;;2.60;96.20;;;;;;5034180;28;20604;-62
2022/12/03 03:29:35;;;;;;;36.00;15.23;;;2.60;96.20;;;;;;5026829;28;20218;-62
2022/12/03 03:32:03;;;;;;;29.37;14.57;;;2.60;96.20;;;;;;5018954;28;20842;-62
2022/12/03 03:34:31;;;;;;;33.60;15.80;;;2.70;96.20;;;;;;5035047;28;20202;-62
2022/12/03 03:36:57;;;;;;;40.13;17.67;;;2.70;96.20;;;;;;5048283;28;20451;-62
2022/12/03 03:39:23;;;;;;;32.90;16.03;;;2.70;96.20;;;;;;5035350;28;20847;-62
2022/12/03 03:41:49;;;;;;;37.13;17.80;;;2.70;96.20;;;;;;5042679;28;20206;-63
2022/12/03 03:44:15;;;;;;;36.40;17.83;;;2.70;96.20;;;;;;5031390;28;20566;-63
2022/12/03 03:46:41;;;;;;;37.43;17.27;;;2.70;96.20;;;;;;5020811;28;20190;-63
2022/12/03 03:49:09;;;;;;;39.00;17.83;;;2.60;96.20;;;;;;5045897;28;20256;-62
2022/12/03 03:51:36;;;;;;;29.83;14.30;;;2.60;96.20;;;;;;5047139;28;20996;-62
2022/12/03 03:54:04;;;;;;;40.43;16.67;;;2.70;96.20;;;;;;5046567;28;20948;-63
2022/12/03 03:56:31;;;;;;;41.00;18.00;;;2.70;96.20;;;;;;5053931;28;20500;-63
2022/12/03 03:58:57;;;;;;;38.13;15.50;;;2.70;96.20;;;;;;5048331;28;20437;-63
2022/12/03 04:01:23;;;;;;;34.57;14.73;;;2.70;96.20;;;;;;5043372;28;20515;-63
2022/12/03 04:03:49;;;;;;;32.27;15.00;;;2.70;96.20;;;;;;5050850;28;20230;-63
2022/12/03 04:06:15;;;;;;;31.00;14.67;;;2.70;96.20;;;;;;5047470;28;20461;-64
2022/12/03 04:08:40;;;;;;;24.40;11.47;;;2.70;96.20;;;;;;5023154;28;20240;-63
2022/12/03 04:13:50;;;;;;;33.33;14.67;;;2.70;96.20;;;;;;5034108;28;20248;-63
2022/12/03 04:16:16;;;;;;;37.13;16.70;;;2.70;96.20;;;;;;5030318;28;20437;-62
2022/12/03 04:18:42;;;;;;;38.03;16.23;;;2.70;96.20;;;;;;5012627;28;20204;-61
2022/12/03 04:23:59;;;;;;;31.87;14.60;;;2.70;96.20;;;;;;5038128;28;20708;-62
2022/12/03 04:29:10;;;;;;;42.43;16.93;;;2.70;96.20;;;;;;5038617;28;20603;-63
2022/12/03 04:37:05;;;;;;;37.27;16.33;;;2.70;96.20;;;;;;5046644;28;20428;-62
2022/12/03 04:39:31;;;;;;;39.10;16.13;;;2.70;96.20;;;;;;5051366;28;20433;-62
2022/12/03 04:41:57;;;;;;;37.07;16.83;;;2.70;96.20;;;;;;5010786;28;20469;-63
2022/12/03 04:44:37;;;;;;;38.33;18.37;;;2.70;96.20;;;;;;5017030;28;20190;-62
2022/12/03 04:47:19;;;;;;;44.37;17.40;;;2.70;96.30;;;;;;5023442;28;20197;-63
2022/12/03 04:49:47;;;;;;;41.57;15.23;;;2.70;96.30;;;;;;5049868;28;20434;-63
2022/12/03 04:52:14;;;;;;;33.03;15.80;;;2.70;96.30;;;;;;5046497;28;20475;-63
2022/12/03 04:54:40;;;;;;;41.60;16.83;;;2.80;96.30;;;;;;5046546;28;20458;-63
2022/12/03 04:57:07;;;;;;;44.30;16.83;;;2.80;96.30;;;;;;5044244;28;20429;-63
2022/12/03 04:59:34;;;;;;;45.83;19.13;;;2.80;96.30;;;;;;5031909;28;20458;-63
2022/12/03 05:02:00;;;;;;;34.63;16.17;;;2.70;96.20;;;;;;5033604;28;20524;-62
2022/12/03 05:04:27;;;;;;;47.20;19.50;;;2.70;96.30;;;;;;5038267;28;20464;-62
2022/12/03 05:06:52;;;;;;;46.17;18.70;;;2.70;96.30;;;;;;5034513;28;20202;-62
2022/12/03 05:09:18;;;;;;;41.67;18.83;;;2.70;96.30;;;;;;5010632;28;20434;-62
2022/12/03 05:11:44;;;;;;;49.80;22.13;;;2.70;96.30;;;;;;5008898;28;20190;-62
2022/12/03 05:14:09;;;;;;;44.67;19.47;;;2.70;96.30;;;;;;5029951;28;20194;-62
2022/12/03 05:16:36;;;;;;;47.27;17.90;;;2.70;96.30;;;;;;5036257;28;20190;-62
2022/12/03 05:19:03;;;;;;;34.27;15.27;;;2.70;96.30;;;;;;5047872;28;20182;-63
2022/12/03 05:21:28;;;;;;;50.67;20.17;;;2.70;96.30;;;;;;5028791;28;20600;-63
2022/12/03 05:23:54;;;;;;;44.30;20.73;;;2.70;96.30;;;;;;5033629;28;20472;-63
2022/12/03 05:26:20;;;;;;;54.27;20.27;;;2.80;96.30;;;;;;5027639;28;20187;-63
2022/12/03 05:28:46;;;;;;;53.93;21.53;;;2.80;96.30;;;;;;5018857;28;20214;-63
2022/12/03 05:31:11;;;;;;;47.23;18.57;;;2.70;96.30;;;;;;5014515;28;20217;-64
2022/12/03 05:33:37;;;;;;;50.40;21.77;;;2.70;96.30;;;;;;5026759;28;20260;-64
2022/12/03 05:36:03;;;;;;;59.70;22.40;;;2.60;96.30;;;;;;5027350;28;20187;-65
2022/12/03 05:38:29;;;;;;;61.27;23.17;;;2.60;96.30;;;;;;5038236;28;20194;-64
2022/12/03 05:40:54;;;;;;;51.20;20.93;;;2.60;96.20;;;;;;5011690;28;20503;-64
2022/12/03 05:43:20;;;;;;;53.43;20.73;;;2.60;96.20;;;;;;5042878;28;20225;-64
2022/12/03 05:45:46;;;;;;;47.53;17.67;;;2.60;96.20;;;;;;5033662;28;20193;-64
2022/12/03 05:48:13;;;;;;;51.80;20.77;;;2.60;96.20;;;;;;5036650;28;20649;-64
2022/12/03 05:50:42;;;;;;;49.63;19.97;;;2.60;96.20;;;;;;5040433;28;20187;-64
2022/12/03 05:53:08;;;;;;;60.87;23.67;;;2.60;96.20;;;;;;5036470;28;20436;-63
2022/12/03 05:55:34;;;;;;;53.57;21.03;;;2.70;96.20;;;;;;5015876;28;20436;-64
2022/12/03 05:57:59;;;;;;;64.27;25.07;;;2.70;96.30;;;;;;5013675;28;20205;-64
2022/12/03 06:00:28;;;;;;;54.77;21.67;;;2.70;96.30;;;;;;5054576;28;20205;-64
2022/12/03 06:02:54;;;;;;;61.87;21.47;;;2.70;96.30;;;;;;5056214;28;20214;-63
2022/12/03 06:05:20;;;;;;;55.47;22.40;;;2.70;96.30;;;;;;5052568;28;20436;-64
2022/12/03 06:07:47;;;;;;;43.60;18.30;;;2.70;96.30;;;;;;5040702;28;20488;-63
2022/12/03 06:10:15;;;;;;;52.33;19.70;;;2.70;96.30;;;;;;5038462;28;20440;-63
2022/12/03 06:12:41;;;;;;;39.63;18.50;;;2.70;96.30;;;;;;5063643;28;20427;-64
2022/12/03 06:15:08;;;;;;;55.37;20.63;;;2.70;96.30;;;;;;5044114;28;20428;-64
2022/12/03 06:17:34;;;;;;;54.77;20.80;;;2.70;96.30;;;;;;5039779;28;20423;-64
2022/12/03 06:19:59;;;;;;;55.40;22.33;;;2.80;96.30;;;;;;5040214;28;20439;-63
2022/12/03 06:22:25;;;;;;;51.43;20.60;;;2.70;96.30;;;;;;5052075;28;20229;-66
2022/12/03 06:24:51;;;;;;;49.77;18.83;;;2.80;96.30;;;;;;5034938;28;20196;-64
2022/12/03 06:27:17;;;;;;;61.47;21.47;;;2.80;96.30;;;;;;5034588;28;20256;-64
2022/12/03 06:29:42;;;;;;;48.63;19.23;;;2.80;96.30;;;;;;5036426;28;20273;-64
2022/12/03 06:32:09;;;;;;;56.40;21.17;;;2.80;96.30;;;;;;5034084;28;20656;-64
2022/12/03 06:34:34;;;;;;;52.40;20.77;;;2.90;96.30;;;;;;5039488;28;20218;-65
2022/12/03 06:37:00;;;;;;;45.90;17.73;;;2.80;96.30;;;;;;5032072;28;20479;-65
2022/12/03 06:39:26;;;;;;;48.43;20.77;;;2.80;96.30;;;;;;5050893;28;20213;-64
2022/12/03 06:41:52;;;;;;;53.10;21.57;;;2.80;96.30;;;;;;5053652;28;20221;-65
2022/12/03 06:44:17;;;;;;;55.87;22.10;;;2.90;96.30;;;;;;5037620;28;20261;-65
2022/12/03 06:46:43;;;;;;;48.87;19.67;;;2.90;96.30;;;;;;5047361;28;20239;-64
2022/12/03 06:49:09;;;;;;;47.20;18.37;;;2.90;96.30;;;;;;5035063;28;20240;-65
2022/12/03 06:51:35;;;;;;;52.03;19.97;;;2.90;96.30;;;;;;5064784;28;20229;-64
2022/12/03 06:54:01;;;;;;;44.30;18.50;;;2.90;96.30;;;;;;5041257;28;20186;-64
2022/12/03 06:56:27;;;;;;;42.93;19.30;;;3.00;96.30;;;;;;5040905;28;20520;-63
2022/12/03 06:58:53;;;;;;;53.23;21.00;;;3.00;96.30;;;;;;5062922;28;20523;-64
2022/12/03 07:01:19;;;;;;;41.27;18.80;;;3.00;96.30;;;;;;5056860;28;20328;-63
2022/12/03 07:03:45;;;;;;;57.50;21.17;;;3.00;96.30;;;;;;5041144;28;20420;-64
2022/12/03 07:06:11;;;;;;;40.10;18.30;;;3.00;96.30;;;;;;5055079;28;20189;-63
2022/12/03 07:08:36;;;;;;;43.63;18.13;;;3.00;96.30;;;;;;5057819;28;20430;-62
2022/12/03 07:11:02;;;;;;;47.07;19.70;;;3.10;96.30;;;;;;5043385;28;20214;-64
2022/12/03 07:13:28;;;;;;;40.57;16.93;;;3.00;96.30;;;;;;5030762;28;20216;-64
2022/12/03 07:15:53;;;;;;;46.13;20.43;;;3.10;96.30;;;;;;5017675;28;20221;-63
2022/12/03 07:18:19;;;;;;;48.63;20.23;;;3.10;96.30;;;;;;5025419;28;20194;-63
2022/12/03 07:20:45;;;;;;;53.40;19.97;;;3.10;96.30;;;;;;5016839;28;20596;-63
2022/12/03 07:23:10;;;;;;;48.97;18.70;;;3.10;96.30;;;;;;5043745;28;20214;-63
2022/12/03 07:25:36;;;;;;;55.30;22.07;;;3.10;96.30;;;;;;5014959;28;20228;-62
2022/12/03 07:28:02;;;;;;;44.83;19.83;;;3.10;96.30;;;;;;5033170;28;20218;-62
2022/12/03 07:30:27;;;;;;;46.20;18.57;;;3.10;96.30;;;;;;5037202;28;20193;-64
2022/12/03 07:32:53;;;;;;;49.60;19.00;;;3.20;96.30;;;;;;5037156;28;20194;-63
2022/12/03 07:35:19;;;;;;;43.57;18.97;;;3.20;96.30;;;;;;5029379;28;20225;-64
2022/12/03 07:37:45;;;;;;;54.50;18.77;;;3.20;96.30;;;;;;5054332;28;20213;-64
2022/12/03 07:40:11;;;;;;;50.83;20.07;;;3.20;96.30;;;;;;5031288;28;20202;-64
2022/12/03 07:42:37;;;;;;;54.23;21.33;;;3.20;96.30;;;;;;5067858;28;20819;-63
2022/12/03 07:45:03;;;;;;;53.07;20.83;;;3.20;96.30;;;;;;5038957;28;20428;-63
2022/12/03 07:47:29;;;;;;;49.73;21.47;;;3.30;96.30;;;;;;5026669;28;20199;-64
2022/12/03 07:49:54;;;;;;;47.00;19.23;;;3.30;96.30;;;;;;5032496;28;20429;-63
2022/12/03 07:52:20;;;;;;;50.57;20.47;;;3.20;96.30;;;;;;5050522;28;20341;-63
2022/12/03 07:54:46;;;;;;;53.27;20.07;;;3.30;96.30;;;;;;5037626;28;20282;-61
2022/12/03 07:57:11;;;;;;;41.40;17.70;;;3.20;96.30;;;;;;5019646;28;20240;-61
2022/12/03 07:59:37;;;;;;;53.70;20.43;;;3.30;96.30;;;;;;5051543;28;20229;-63
2022/12/03 08:02:03;;;;;;;42.13;18.37;;;3.20;96.30;;;;;;5027231;28;20206;-63
2022/12/03 08:04:28;;;;;;;55.60;22.50;;;3.30;96.30;;;;;;5007865;28;20291;-63
2022/12/03 08:06:54;;;;;;;57.63;23.00;;;3.30;96.30;;;;;;5040819;28;20195;-63
2022/12/03 08:09:20;;;;;;;48.33;19.73;;;3.10;96.30;;;;;;5031784;28;20209;-63
2022/12/03 08:11:48;;;;;;;53.17;21.47;;;3.20;96.20;;;;;;5025359;28;20202;-64
2022/12/03 08:14:17;;;;;;;46.23;19.20;;;3.10;96.20;;;;;;5021447;28;20268;-64
2022/12/03 08:16:44;;;;;;;52.67;21.60;;;3.10;96.10;;;;;;5051751;28;20440;-63
2022/12/03 08:19:12;;;;;;;49.13;18.10;;;3.20;96.20;;;;;;5049679;28;20510;-63
2022/12/03 08:21:38;;;;;;;45.73;21.93;;;3.30;96.20;;;;;;5019035;28;20472;-63
2022/12/03 08:24:20;;;;;;;49.33;21.10;;;3.30;96.20;;;;;;5025878;28;20445;-63
2022/12/03 08:26:48;;;;;;;46.30;18.97;;;3.30;96.20;;;;;;5048934;28;20469;-63
2022/12/03 08:29:18;;;;;;;50.33;22.63;;;3.30;96.20;;;;;;5046701;28;20469;-64
2022/12/03 08:31:50;;;;;;;48.93;19.67;;;3.30;96.20;;;;;;5033270;28;20564;-64
2022/12/03 08:34:22;;;;;;;56.07;21.57;;;3.30;96.10;;;;;;5049983;28;20765;-64
2022/12/03 08:36:51;;;;;;;51.83;22.77;;;3.20;96.10;;;;;;5035137;28;20482;-64
2022/12/03 08:39:36;;;;;;;56.20;21.43;;;3.30;96.00;;;;;;5051565;28;20519;-63
2022/12/03 08:44:54;;;;;;;49.97;20.00;;;3.10;95.60;;;;;;5040126;28;20424;-64
2022/12/03 08:47:22;;;;;;;50.37;21.60;;;3.20;95.70;;;;;;5027244;28;20440;-62
2022/12/03 08:50:05;;;;;;;48.93;20.00;;;3.30;95.80;;;;;;5048005;28;20424;-63
2022/12/03 08:52:33;;;;;;;46.47;19.07;;;3.30;95.90;;;;;;5047496;28;20472;-62
2022/12/03 08:55:01;;;;;;;47.73;20.57;;;3.30;95.90;;;;;;5018444;28;20433;-63
2022/12/03 08:57:28;;;;;;;57.33;21.83;;;3.40;95.90;;;;;;5031991;28;20975;-63
2022/12/03 09:00:19;;;;;;;53.20;22.13;;;3.40;96.00;;;;;;5042184;28;20431;-63
2022/12/03 09:02:49;;;;;;;53.60;23.40;;;3.40;95.90;;;;;;5053796;28;20460;-63
2022/12/03 09:05:19;;;;;;;51.73;20.27;;;3.40;96.00;;;;;;5034989;28;21171;-61
2022/12/03 09:07:45;;;;;;;41.67;19.30;;;3.40;96.00;;;;;;5047526;28;20429;-63
2022/12/03 09:10:11;;;;;;;47.73;20.23;;;3.50;96.00;;;;;;5050803;28;20430;-63
2022/12/03 09:12:37;;;;;;;50.30;21.50;;;3.40;95.90;;;;;;5035714;28;20187;-64
2022/12/03 09:15:03;;;;;;;48.20;20.97;;;3.40;95.90;;;;;;5045938;28;20183;-64
2022/12/03 09:17:28;;;;;;;43.93;20.77;;;3.30;95.60;;;;;;5052324;28;20190;-63
2022/12/03 09:19:54;;;;;;;42.17;20.03;;;3.30;95.50;;;;;;5049612;28;20539;-64
2022/12/03 09:22:20;;;;;;;46.43;20.23;;;3.30;95.60;;;;;;5014564;28;20294;-64
2022/12/03 09:24:45;;;;;;;47.20;20.40;;;3.30;95.60;;;;;;5019218;28;20224;-64
2022/12/03 09:27:11;;;;;;;52.53;21.93;;;3.30;95.70;;;;;;5011096;28;20282;-63
2022/12/03 09:29:36;;;;;;;46.60;20.07;;;3.40;95.80;;;;;;5015825;28;20277;-65
2022/12/03 09:32:02;;;;;;;45.07;20.10;;;3.40;95.80;;;;;;5051192;28;20300;-64
2022/12/03 09:34:28;;;;;;;51.03;21.90;;;3.40;95.80;;;;;;5015588;28;20205;-64
2022/12/03 09:36:53;;;;;;;48.87;22.07;;;3.40;95.70;;;;;;5011653;28;20220;-64
2022/12/03 09:39:19;;;;;;;51.70;21.30;;;3.30;95.60;;;;;;5011037;28;20326;-64
2022/12/03 09:41:45;;;;;;;45.33;19.67;;;3.30;95.50;;;;;;5039677;28;20207;-64
2022/12/03 09:44:11;;;;;;;54.13;21.50;;;3.40;95.60;;;;;;5033171;28;20183;-64
2022/12/03 09:46:38;;;;;;;45.90;20.50;;;3.50;95.70;;;;;;5033000;28;20433;-64
2022/12/03 09:49:06;;;;;;;42.17;20.90;;;3.40;95.60;;;;;;5039646;28;20428;-64
2022/12/03 09:51:34;;;;;;;49.33;21.77;;;3.40;95.60;;;;;;5048089;28;20481;-64
2022/12/03 09:54:01;;;;;;;46.70;21.53;;;3.50;95.40;;;;;;5051355;28;20530;-64
2022/12/03 09:56:27;;;;;;;39.23;19.47;;;3.30;94.50;;;;;;5024629;28;20518;-64
2022/12/03 09:58:53;;;;;;;45.30;20.03;;;3.30;94.30;;;;;;5031777;28;20472;-64
2022/12/03 10:01:19;;;;;;;38.00;19.60;;;3.40;94.80;;;;;;5040688;28;20216;-63
2022/12/03 10:03:49;;;;;;;42.40;18.63;;;3.40;94.60;;;;;;5035872;28;20574;-63
2022/12/03 10:06:21;;;;;;;44.90;22.23;;;3.30;94.40;;;;;;5040861;28;20188;-63
2022/12/03 10:08:49;;;;;;;39.93;19.00;;;3.30;94.40;;;;;;5049077;28;20469;-64
2022/12/03 10:11:17;;;;;;;38.97;18.57;;;3.40;94.80;;;;;;5040066;28;20991;-62
2022/12/03 10:13:43;;;;;;;40.43;19.80;;;3.40;94.80;;;;;;5031656;28;20943;-63
2022/12/03 10:16:12;;;;;;;41.60;18.57;;;3.40;94.90;;;;;;5042155;28;20425;-63
2022/12/03 10:18:40;;;;;;;42.07;19.87;;;3.50;94.90;;;;;;5038635;28;20440;-64
2022/12/03 10:21:25;;;;;;;44.87;19.30;;;3.50;95.00;;;;;;5052188;28;20468;-66
2022/12/03 10:24:16;;;;;;;37.37;18.90;;;3.60;95.10;;;;;;5049938;28;20435;-66
2022/12/03 10:26:43;;;;;;;39.50;17.93;;;3.60;95.20;;;;;;5049375;28;20427;-66
2022/12/03 10:29:32;;;;;;;39.47;19.40;;;3.60;95.30;;;;;;5017255;28;20557;-65
2022/12/03 10:32:05;;;;;;;41.40;19.57;;;3.70;95.30;;;;;;5041542;28;20942;-65
2022/12/03 10:34:37;;;;;;;33.30;17.93;;;3.70;95.40;;;;;;5044711;28;20426;-64
2022/12/03 10:37:21;;;;;;;39.53;19.10;;;3.70;95.40;;;;;;5038908;28;20437;-64
2022/12/03 10:40:22;;;;;;;42.90;19.90;;;3.70;95.40;;;;;;5049471;28;20441;-64
2022/12/03 10:42:47;;;;;;;41.53;17.63;;;3.60;95.40;;;;;;5029264;28;20487;-65
2022/12/03 10:45:23;;;;;;;39.63;18.03;;;3.70;95.50;;;;;;5011203;28;20568;-65
2022/12/03 10:48:19;;;;;;;39.67;19.07;;;3.70;95.50;;;;;;5041774;28;20190;-66
2022/12/03 10:50:48;;;;;;;38.40;18.40;;;3.60;95.50;;;;;;5051356;28;20464;-65
2022/12/03 10:53:14;;;;;;;41.10;19.83;;;3.60;95.50;;;;;;5043563;28;20450;-65
2022/12/03 10:55:42;;;;;;;38.20;18.27;;;3.70;95.60;;;;;;5054598;28;20415;-65
2022/12/03 10:58:21;;;;;;;44.30;19.00;;;3.70;95.60;;;;;;5031222;28;20193;-65
2022/12/03 11:00:48;;;;;;;41.07;19.87;;;3.80;95.60;;;;;;5044965;28;20432;-65
2022/12/03 11:03:23;;;;;;;39.67;19.97;;;3.70;95.60;;;;;;5019761;28;20956;-65
2022/12/03 11:05:50;;;;;;;39.47;20.17;;;3.70;95.60;;;;;;5048607;28;20473;-66
2022/12/03 11:08:36;;;;;;;36.43;18.97;;;3.80;95.70;;;;;;5050256;28;20560;-65
2022/12/03 11:11:06;;;;;;;37.17;17.83;;;3.60;95.20;;;;;;5028173;28;20582;-66
2022/12/03 11:13:31;;;;;;;41.83;20.50;;;3.50;95.20;;;;;;5054433;28;20442;-66
2022/12/03 11:16:01;;;;;;;35.33;18.40;;;3.60;95.30;;;;;;5042842;28;20438;-66
2022/12/03 11:18:35;;;;;;;35.83;17.90;;;3.40;94.70;;;;;;5056394;28;20193;-66
2022/12/03 11:21:13;;;;;;;39.77;20.63;;;3.40;94.70;;;;;;5058533;28;20459;-66
2022/12/03 11:23:44;;;;;;;39.80;20.27;;;3.40;94.80;;;;;;5046200;28;20415;-66
2022/12/03 11:26:14;;;;;;;34.03;19.17;;;3.40;95.00;;;;;;5053445;28;20444;-66
2022/12/03 11:28:46;;;;;;;40.97;19.30;;;3.50;95.20;;;;;;5042465;28;20515;-65
2022/12/03 11:31:39;;;;;;;38.37;19.60;;;3.50;95.30;;;;;;5045254;28;20971;-64
2022/12/03 11:34:17;;;;;;;32.17;16.30;;;3.60;95.40;;;;;;5059692;28;20891;-64
2022/12/03 11:37:08;;;;;;;37.70;19.47;;;3.60;95.40;;;;;;5065625;28;20428;-65
2022/12/03 11:39:54;;;;;;;35.37;17.90;;;3.60;95.50;;;;;;5055410;28;20436;-65
2022/12/03 11:42:24;;;;;;;36.90;18.97;;;3.50;95.40;;;;;;5065092;28;20473;-64
2022/12/03 11:45:04;;;;;;;38.03;17.20;;;3.50;95.20;;;;;;5061655;28;20937;-63
2022/12/03 11:47:36;;;;;;;32.97;17.60;;;3.30;94.60;;;;;;5060779;28;20419;-64
2022/12/03 11:50:22;;;;;;;41.63;20.97;;;3.30;94.70;;;;;;5055936;28;20432;-63
2022/12/03 11:52:59;;;;;;;45.47;20.03;;;3.40;95.00;;;;;;5037673;28;20465;-65
2022/12/03 11:55:34;;;;;;;44.27;20.90;;;3.40;95.20;;;;;;5037974;28;20437;-66
2022/12/03 11:58:13;;;;;;;37.37;19.90;;;3.50;95.30;;;;;;5047548;28;20460;-65
2022/12/03 12:00:47;;;;;;;43.97;20.83;;;3.50;95.30;;;;;;5047477;28;20433;-65
2022/12/03 12:03:21;;;;;;;42.57;21.03;;;3.60;95.40;;;;;;5041188;28;20492;-66
2022/12/03 12:06:04;;;;;;;39.37;17.53;;;3.60;95.40;;;;;;5045659;28;20427;-65
2022/12/03 12:08:31;;;;;;;36.43;18.80;;;3.60;95.50;;;;;;5047651;28;21022;-66
2022/12/03 12:10:57;;;;;;;36.97;18.80;;;3.60;95.50;;;;;;5044751;28;20519;-65
2022/12/03 12:13:35;;;;;;;36.50;17.90;;;3.70;95.60;;;;;;5028385;28;20509;-64
2022/12/03 12:16:05;;;;;;;35.73;17.57;;;3.70;95.50;;;;;;5047515;28;20256;-65
2022/12/03 12:18:47;;;;;;;40.57;18.90;;;3.70;95.60;;;;;;5026075;28;20501;-65
2022/12/03 12:21:40;;;;;;;33.60;17.33;;;3.70;95.60;;;;;;5033230;28;20470;-65
2022/12/03 12:24:28;;;;;;;41.13;18.87;;;3.70;95.60;;;;;;5047784;28;20448;-65
2022/12/03 12:26:55;;;;;;;35.00;18.93;;;3.70;95.70;;;;;;5049365;28;20476;-66
2022/12/03 12:29:20;;;;;;;34.40;17.80;;;3.70;95.70;;;;;;5041201;28;20524;-68
2022/12/03 12:31:48;;;;;;;31.20;16.77;;;3.60;95.60;;;;;;5017276;28;20866;-65
2022/12/03 12:34:14;;;;;;;33.53;18.07;;;3.50;95.40;;;;;;5036378;28;20200;-65
2022/12/03 12:36:40;;;;;;;35.90;18.43;;;3.50;95.10;;;;;;5037644;28;20521;-65
2022/12/03 12:39:14;;;;;;;33.93;17.47;;;3.50;95.30;;;;;;5046453;28;20420;-66
2022/12/03 12:41:41;;;;;;;36.93;19.00;;;3.60;95.40;;;;;;5051045;28;20472;-66
2022/12/03 12:44:11;;;;;;;34.60;17.10;;;3.60;95.40;;;;;;5043022;28;20462;-66
2022/12/03 12:46:37;;;;;;;31.07;16.33;;;3.70;95.50;;;;;;5044810;28;20449;-65
2022/12/03 12:49:14;;;;;;;32.20;16.40;;;3.70;95.60;;;;;;5012319;28;20472;-66
2022/12/03 12:51:44;;;;;;;32.90;16.20;;;3.80;95.60;;;;;;5047065;28;20288;-65
2022/12/03 12:54:12;;;;;;;31.70;16.23;;;3.80;95.60;;;;;;5047059;28;20497;-66
2022/12/03 12:56:41;;;;;;;35.17;17.97;;;3.80;95.70;;;;;;5049573;28;20420;-65
2022/12/03 12:59:09;;;;;;;32.43;17.10;;;3.80;95.70;;;;;;5026324;28;20962;-65